Time;durP1;ratioP1;P1;durP2;ratioP2;P2;SDS_P1;SDS_P2;PMS_P1;PMS_P2;Temp;Humidity;BMP_temperature;BMP_pressure;BME280_temperature;BME280_humidity;BME280_pressure;Samples;Min_cycle;Max_cycle;Signal;HPM_P1;HPM_P2
2021/08/18 00:00:07;;;;;;;32.38;16.00;;;;;;;14.99;95.50;100507.03;4910251;29;20049;-80
2021/08/18 00:02:33;;;;;;;29.98;15.77;;;;;;;14.99;95.87;100502.56;4902513;29;20127;-80
2021/08/18 00:05:02;;;;;;;28.65;15.95;;;;;;;15.00;95.85;100498.94;4901536;29;20163;-80
2021/08/18 00:07:29;;;;;;;31.50;15.45;;;;;;;14.99;95.83;100501.72;4907601;29;20068;-80
2021/08/18 00:09:56;;;;;;;28.60;15.50;;;;;;;14.99;95.46;100499.03;4908286;29;20056;-79
2021/08/18 00:12:23;;;;;;;27.30;14.88;;;;;;;15.00;95.58;100498.09;4916418;29;20050;-79
2021/08/18 00:14:50;;;;;;;27.60;15.07;;;;;;;15.03;95.51;100495.22;4889764;29;20051;-79
2021/08/18 00:17:18;;;;;;;30.02;15.15;;;;;;;15.05;95.53;100498.66;4916156;29;20512;-79
2021/08/18 00:19:45;;;;;;;29.63;15.20;;;;;;;15.05;95.49;100493.31;4908946;29;20126;-79
2021/08/18 00:22:12;;;;;;;28.30;15.35;;;;;;;15.04;94.89;100489.81;4909236;29;20080;-79
2021/08/18 00:24:38;;;;;;;29.58;15.55;;;;;;;15.03;94.82;100488.09;4899565;29;20100;-79
2021/08/18 00:27:05;;;;;;;27.27;14.40;;;;;;;15.03;95.01;100501.41;4911301;29;20048;-79
2021/08/18 00:29:39;;;;;;;28.30;14.50;;;;;;;15.04;95.06;100494.28;4911591;29;20086;-79
2021/08/18 00:32:07;;;;;;;28.75;14.40;;;;;;;15.03;94.94;100503.22;4904952;29;20056;-80
2021/08/18 00:34:33;;;;;;;26.90;14.60;;;;;;;15.03;95.34;100484.56;4907985;29;20060;-79
2021/08/18 00:37:00;;;;;;;29.38;14.35;;;;;;;15.04;95.73;100488.94;4915025;29;20081;-79
2021/08/18 00:39:27;;;;;;;27.75;14.35;;;;;;;15.05;95.77;100482.66;4911586;29;20040;-79
2021/08/18 00:41:54;;;;;;;28.13;14.18;;;;;;;15.07;95.02;100484.28;4931977;29;20063;-78
2021/08/18 00:44:21;;;;;;;25.10;13.63;;;;;;;15.06;94.94;100487.91;4929413;29;20079;-79
2021/08/18 00:46:54;;;;;;;24.17;12.80;;;;;;;15.03;95.17;100488.09;4915649;29;20099;-79
2021/08/18 00:49:26;;;;;;;24.60;12.63;;;;;;;15.04;95.50;100479.13;4919806;29;20047;-79
2021/08/18 00:51:54;;;;;;;25.92;14.13;;;;;;;15.07;94.80;100480.75;4916522;29;20055;-79
2021/08/18 00:54:20;;;;;;;26.40;13.57;;;;;;;15.07;94.88;100480.75;4911777;29;20036;-79
2021/08/18 00:56:47;;;;;;;25.75;13.18;;;;;;;15.06;94.75;100487.03;4926051;29;20058;-79
2021/08/18 00:59:14;;;;;;;22.95;12.63;;;;;;;15.08;94.75;100486.00;4921385;29;20044;-79
2021/08/18 01:01:42;;;;;;;25.48;13.50;;;;;;;15.07;94.87;100481.63;4899704;29;20057;-79
2021/08/18 01:04:11;;;;;;;25.38;12.82;;;;;;;15.09;94.58;100485.03;4915873;29;20085;-79
2021/08/18 01:06:40;;;;;;;23.52;12.85;;;;;;;15.11;95.05;100476.91;4920354;29;20635;-79
2021/08/18 01:09:09;;;;;;;24.10;13.40;;;;;;;15.11;95.36;100476.91;4921488;29;20055;-79
2021/08/18 01:11:39;;;;;;;23.98;12.88;;;;;;;15.09;95.16;100477.03;4916168;29;20052;-79
2021/08/18 01:14:08;;;;;;;22.85;12.88;;;;;;;15.08;95.04;100477.13;4908751;29;20049;-79
2021/08/18 01:16:40;;;;;;;22.35;12.10;;;;;;;15.07;95.08;100478.94;4913832;29;20076;-79
2021/08/18 01:19:10;;;;;;;23.13;12.52;;;;;;;15.07;95.11;100472.75;4906167;29;20049;-79
2021/08/18 01:21:41;;;;;;;18.75;11.52;;;;;;;15.09;95.58;100474.38;4907947;29;20056;-79
2021/08/18 01:24:12;;;;;;;22.27;12.18;;;;;;;15.13;95.58;100482.16;4904299;29;20051;-79
2021/08/18 01:26:40;;;;;;;21.02;11.98;;;;;;;15.12;95.18;100477.78;4903710;29;20044;-79
2021/08/18 01:29:07;;;;;;;20.20;10.85;;;;;;;15.08;94.97;100478.00;4904530;29;20053;-79
2021/08/18 01:31:34;;;;;;;20.55;10.85;;;;;;;15.12;95.38;100475.09;4904521;29;20135;-79
2021/08/18 01:34:03;;;;;;;19.65;10.57;;;;;;;15.12;95.35;100483.09;4904533;29;20080;-79
2021/08/18 01:36:33;;;;;;;18.10;10.70;;;;;;;15.15;95.37;100482.91;4907649;29;20056;-79
2021/08/18 01:39:05;;;;;;;21.05;9.80;;;;;;;15.15;95.01;100477.56;4901578;29;20058;-79
2021/08/18 01:41:31;;;;;;;17.08;9.50;;;;;;;15.15;94.78;100470.44;4912586;29;20055;-80
2021/08/18 01:43:58;;;;;;;15.13;8.70;;;;;;;15.14;94.03;100471.38;4898517;29;20036;-80
2021/08/18 01:46:25;;;;;;;17.08;9.32;;;;;;;15.15;94.43;100470.44;4908433;29;20051;-80
2021/08/18 01:48:53;;;;;;;17.90;8.68;;;;;;;15.13;94.23;100461.66;4905780;29;20049;-80
2021/08/18 01:51:20;;;;;;;12.43;7.43;;;;;;;15.12;94.45;100465.28;4913734;29;20131;-80
2021/08/18 01:53:47;;;;;;;12.70;6.95;;;;;;;15.12;94.26;100459.94;4902410;29;20055;-80
2021/08/18 01:56:18;;;;;;;10.40;6.60;;;;;;;15.15;94.01;100466.91;4910355;29;20040;-80
2021/08/18 01:58:46;;;;;;;10.95;6.38;;;;;;;15.16;94.16;100463.28;4904037;29;20345;-80
2021/08/18 02:01:15;;;;;;;11.88;7.00;;;;;;;15.15;94.46;100467.75;4910764;29;20044;-78
2021/08/18 02:03:42;;;;;;;9.82;5.78;;;;;;;15.17;94.55;100462.34;4904189;29;20053;-80
2021/08/18 02:06:09;;;;;;;11.27;6.05;;;;;;;15.16;94.24;100455.28;4905825;29;20055;-80
2021/08/18 02:08:37;;;;;;;10.55;5.72;;;;;;;15.16;94.35;100465.94;4904743;29;20959;-78
2021/08/18 02:11:04;;;;;;;10.73;5.75;;;;;;;15.16;93.83;100460.63;4906094;29;20044;-79
2021/08/18 02:13:31;;;;;;;13.57;5.72;;;;;;;15.15;93.63;100467.75;4902955;29;20516;-78
2021/08/18 02:15:57;;;;;;;8.98;5.47;;;;;;;15.15;93.89;100470.44;4903473;29;20055;-80
2021/08/18 02:18:25;;;;;;;8.40;5.20;;;;;;;15.17;93.96;100473.00;4905639;29;20540;-80
2021/08/18 02:20:51;;;;;;;7.43;4.75;;;;;;;15.19;93.41;100476.44;4900993;29;20070;-80
2021/08/18 02:23:19;;;;;;;9.25;4.97;;;;;;;15.19;93.40;100471.94;4906725;29;20044;-80
2021/08/18 02:25:46;;;;;;;8.30;4.78;;;;;;;15.18;93.26;100477.38;4899949;29;20691;-80
2021/08/18 02:28:13;;;;;;;8.75;5.18;;;;;;;15.16;92.82;100466.81;4910588;29;20519;-80
2021/08/18 02:30:40;;;;;;;9.32;5.32;;;;;;;15.18;93.01;100474.72;4901309;29;20045;-80
2021/08/18 02:33:08;;;;;;;12.10;5.53;;;;;;;15.18;93.43;100466.72;4900732;29;20060;-80
2021/08/18 02:35:36;;;;;;;7.57;4.80;;;;;;;15.17;93.42;100479.19;4905286;29;20477;-80
2021/08/18 02:38:04;;;;;;;9.00;5.20;;;;;;;15.19;93.59;100481.75;4909361;29;20064;-80
2021/08/18 02:40:31;;;;;;;8.80;5.53;;;;;;;15.16;93.05;100477.47;4920708;29;20044;-80
2021/08/18 02:42:59;;;;;;;7.13;4.53;;;;;;;15.17;92.84;100479.19;4912007;29;20079;-79
2021/08/18 02:45:27;;;;;;;9.32;4.95;;;;;;;15.20;93.85;100483.47;4915272;29;20071;-80
2021/08/18 02:47:54;;;;;;;8.20;4.78;;;;;;;15.22;93.54;100476.25;4911401;29;20072;-80
2021/08/18 02:50:23;;;;;;;9.43;4.35;;;;;;;15.22;93.20;100477.09;4925090;29;20112;-80
2021/08/18 02:52:50;;;;;;;7.20;4.50;;;;;;;15.22;92.62;100484.25;4927876;29;20772;-79
2021/08/18 02:55:17;;;;;;;6.30;4.20;;;;;;;15.19;92.92;100476.44;4934416;29;20124;-79
2021/08/18 02:57:44;;;;;;;7.95;4.25;;;;;;;15.15;93.26;100470.44;4926087;29;20101;-79
2021/08/18 03:00:12;;;;;;;6.72;4.30;;;;;;;15.14;92.98;100473.19;4930484;29;20048;-79
2021/08/18 03:02:39;;;;;;;6.30;3.97;;;;;;;15.12;92.52;100464.44;4906841;29;20107;-79
2021/08/18 03:05:07;;;;;;;6.07;3.80;;;;;;;15.11;93.59;100470.75;4903265;29;20548;-79
2021/08/18 03:07:33;;;;;;;7.05;3.80;;;;;;;15.09;93.76;100463.69;4915767;29;20044;-79
2021/08/18 03:10:00;;;;;;;7.68;4.05;;;;;;;15.08;93.48;100466.47;4914370;29;20060;-79
2021/08/18 03:12:26;;;;;;;5.72;3.88;;;;;;;15.08;93.43;100475.31;4911584;29;20044;-79
2021/08/18 03:14:53;;;;;;;9.20;4.20;;;;;;;15.07;93.32;100468.28;4914599;29;20049;-79
2021/08/18 03:17:20;;;;;;;7.38;3.92;;;;;;;15.08;94.01;100474.47;4909558;29;20551;-79
2021/08/18 03:19:46;;;;;;;6.63;4.20;;;;;;;15.11;93.64;100470.75;4915783;29;20063;-79
2021/08/18 03:22:13;;;;;;;7.03;4.03;;;;;;;15.10;93.50;100472.56;4915604;29;20049;-79
2021/08/18 03:24:40;;;;;;;6.07;4.10;;;;;;;15.09;93.57;100477.03;4911575;29;20048;-79
2021/08/18 03:27:07;;;;;;;5.75;3.97;;;;;;;15.11;93.82;100471.56;4908217;29;20052;-79
2021/08/18 03:29:33;;;;;;;5.38;3.42;;;;;;;15.11;93.98;100471.56;4908681;29;20045;-79
2021/08/18 03:32:01;;;;;;;5.68;4.07;;;;;;;15.11;93.98;100468.91;4909421;29;20041;-79
2021/08/18 03:34:28;;;;;;;6.95;4.22;;;;;;;15.12;94.21;100469.75;4920597;29;20064;-79
2021/08/18 03:36:55;;;;;;;7.72;4.20;;;;;;;15.11;94.11;100474.25;4919805;29;20072;-79
2021/08/18 03:39:21;;;;;;;5.93;3.80;;;;;;;15.13;94.00;100468.81;4912830;29;20056;-79
2021/08/18 03:41:48;;;;;;;5.45;3.70;;;;;;;15.14;94.01;100467.84;4913769;29;20059;-79
2021/08/18 03:44:15;;;;;;;5.70;3.75;;;;;;;15.12;93.69;100469.75;4896863;29;20060;-81
2021/08/18 03:46:41;;;;;;;4.82;3.78;;;;;;;15.11;93.94;100463.56;4911183;29;20051;-80
2021/08/18 03:49:08;;;;;;;6.50;4.07;;;;;;;15.08;94.03;100466.47;4922449;29;20054;-80
2021/08/18 03:51:35;;;;;;;8.80;3.92;;;;;;;15.09;94.16;100466.38;4930202;29;20040;-79
2021/08/18 03:54:02;;;;;;;6.30;4.10;;;;;;;15.06;93.97;100458.56;4928739;29;20104;-79
2021/08/18 03:56:28;;;;;;;5.28;3.70;;;;;;;15.08;93.92;100462.00;4928328;29;20391;-80
2021/08/18 03:58:55;;;;;;;8.63;3.60;;;;;;;15.07;93.91;100462.09;4911218;29;20048;-80
2021/08/18 04:01:22;;;;;;;9.55;4.07;;;;;;;15.08;94.13;100470.00;4903518;29;20060;-80
2021/08/18 04:03:49;;;;;;;4.88;3.90;;;;;;;15.11;94.36;100473.41;4904388;29;20806;-80
2021/08/18 04:06:15;;;;;;;5.10;4.00;;;;;;;15.11;94.27;100478.75;4909736;29;20048;-80
2021/08/18 04:08:42;;;;;;;6.00;4.10;;;;;;;15.11;93.97;100474.25;4917594;29;20072;-79
2021/08/18 04:11:09;;;;;;;5.45;3.85;;;;;;;15.13;94.18;100479.47;4908635;29;20093;-79
2021/08/18 04:13:36;;;;;;;7.60;4.15;;;;;;;15.15;93.80;100480.25;4913614;29;20054;-79
2021/08/18 04:16:04;;;;;;;6.07;4.22;;;;;;;15.13;93.87;100484.81;4908448;29;20051;-80
2021/08/18 04:18:31;;;;;;;5.47;3.72;;;;;;;15.15;94.32;100485.56;4893029;29;20079;-80
2021/08/18 04:20:57;;;;;;;7.65;4.05;;;;;;;15.17;94.11;100483.66;4905046;29;20052;-80
2021/08/18 04:23:24;;;;;;;6.70;4.18;;;;;;;15.18;94.38;100485.38;4891841;29;20044;-80
2021/08/18 04:25:51;;;;;;;6.80;4.25;;;;;;;15.17;93.78;100478.34;4903483;29;20591;-80
2021/08/18 04:28:18;;;;;;;6.20;4.10;;;;;;;15.16;93.97;100472.16;4911513;29;20116;-80
2021/08/18 04:30:44;;;;;;;6.07;4.22;;;;;;;15.16;93.84;100473.97;4904587;29;20057;-80
2021/08/18 04:33:11;;;;;;;6.97;4.03;;;;;;;15.16;94.25;100476.63;4904866;29;20041;-80
2021/08/18 04:35:39;;;;;;;5.60;4.20;;;;;;;15.16;94.38;100471.28;4912918;29;20112;-80
2021/08/18 04:38:06;;;;;;;6.40;4.03;;;;;;;15.20;94.51;100472.81;4902787;29;20047;-80
2021/08/18 04:40:32;;;;;;;7.30;4.25;;;;;;;15.23;94.19;100481.47;4902296;29;20057;-80
2021/08/18 04:42:59;;;;;;;5.47;3.95;;;;;;;15.25;94.00;100470.72;4901189;29;20044;-79
2021/08/18 04:45:26;;;;;;;5.75;4.25;;;;;;;15.22;93.98;100473.56;4909235;29;20049;-80
2021/08/18 04:47:52;;;;;;;6.32;3.90;;;;;;;15.23;93.99;100470.81;4895308;29;20045;-80
2021/08/18 04:50:20;;;;;;;6.35;4.15;;;;;;;15.19;93.66;100460.44;4914223;29;20049;-80
2021/08/18 04:52:47;;;;;;;6.88;3.88;;;;;;;15.22;93.88;100476.25;4916365;29;20128;-79
2021/08/18 04:55:15;;;;;;;6.97;3.95;;;;;;;15.20;93.96;100467.47;4906044;29;20062;-79
2021/08/18 04:57:41;;;;;;;7.28;4.20;;;;;;;15.21;93.99;100470.03;4914027;29;20040;-79
2021/08/18 05:00:09;;;;;;;6.88;3.92;;;;;;;15.26;94.37;100470.63;4915254;29;20064;-80
2021/08/18 05:02:36;;;;;;;6.35;4.22;;;;;;;15.30;94.06;100476.59;4906870;29;20112;-80
2021/08/18 05:05:05;;;;;;;4.93;3.83;;;;;;;15.31;93.71;100478.28;4911727;29;20135;-80
2021/08/18 05:07:32;;;;;;;4.47;3.63;;;;;;;15.34;93.52;100480.78;4914514;29;20128;-79
2021/08/18 05:09:59;;;;;;;5.40;3.75;;;;;;;15.35;93.08;100478.00;4901217;29;20072;-80
2021/08/18 05:12:25;;;;;;;5.47;3.58;;;;;;;15.39;93.21;100474.19;4919536;29;20083;-80
2021/08/18 05:14:52;;;;;;;4.45;3.53;;;;;;;15.42;93.16;100473.97;4917295;29;20049;-79
2021/08/18 05:17:20;;;;;;;4.57;3.45;;;;;;;15.45;93.03;100478.25;4922583;29;20071;-79
2021/08/18 05:19:47;;;;;;;25.20;12.95;;;;;;;15.46;92.94;100479.97;4928388;29;20056;-80
2021/08/18 05:22:14;;;;;;;4.90;3.40;;;;;;;15.48;92.90;100469.19;4928561;29;20052;-79
2021/08/18 05:24:41;;;;;;;4.65;3.47;;;;;;;15.55;92.81;100470.50;4929033;29;20135;-79
2021/08/18 05:27:07;;;;;;;4.20;3.15;;;;;;;15.57;92.05;100472.16;4912327;29;20052;-80
2021/08/18 05:29:34;;;;;;;3.80;3.00;;;;;;;15.61;91.56;100473.63;4905394;29;20056;-79
2021/08/18 05:32:01;;;;;;;4.43;2.90;;;;;;;15.62;91.48;100475.34;4902658;29;20048;-79
2021/08/18 05:34:27;;;;;;;5.55;3.30;;;;;;;15.66;91.40;100478.69;4909815;29;20052;-79
2021/08/18 05:36:54;;;;;;;4.40;2.58;;;;;;;15.69;91.16;100484.69;4916768;29;20056;-80
2021/08/18 05:39:21;;;;;;;3.67;2.33;;;;;;;15.71;91.27;100484.56;4905007;29;20058;-80
2021/08/18 05:41:48;;;;;;;3.63;2.72;;;;;;;15.76;91.30;100480.63;4906474;29;20052;-79
2021/08/18 05:44:15;;;;;;;5.32;2.80;;;;;;;15.81;90.56;100479.47;4910610;29;20049;-80
2021/08/18 05:46:41;;;;;;;3.20;2.58;;;;;;;15.86;90.21;100488.03;4899496;29;20748;-79
2021/08/18 05:49:08;;;;;;;5.13;2.50;;;;;;;15.89;90.45;100482.50;4904430;29;20080;-79
2021/08/18 05:51:35;;;;;;;3.05;2.53;;;;;;;15.93;90.42;100490.16;4897053;29;20044;-80
2021/08/18 05:54:02;;;;;;;2.97;2.40;;;;;;;15.97;90.39;100480.16;4895659;29;20048;-80
2021/08/18 05:56:28;;;;;;;3.70;2.42;;;;;;;16.04;89.89;100482.31;4896375;29;20139;-80
2021/08/18 05:58:55;;;;;;;4.10;2.28;;;;;;;16.13;89.50;100486.16;4911067;29;20048;-79
2021/08/18 06:01:21;;;;;;;2.72;2.10;;;;;;;16.21;88.48;100488.31;4899308;29;20056;-80
2021/08/18 06:03:49;;;;;;;2.20;2.00;;;;;;;16.28;88.04;100486.91;4896138;29;20056;-79
2021/08/18 06:06:16;;;;;;;5.57;2.10;;;;;;;16.35;87.72;100488.22;4899856;29;20461;-79
2021/08/18 06:08:43;;;;;;;3.67;2.33;;;;;;;16.40;87.51;100484.25;4902032;29;20064;-79
2021/08/18 06:11:10;;;;;;;3.28;2.08;;;;;;;16.44;86.91;100475.06;4898631;29;20055;-79
2021/08/18 06:13:36;;;;;;;2.30;1.63;;;;;;;16.47;86.55;100484.69;4899701;29;20052;-80
2021/08/18 06:16:03;;;;;;;2.88;2.20;;;;;;;16.55;86.52;100492.16;4900910;29;20048;-79
2021/08/18 06:18:30;;;;;;;3.20;1.98;;;;;;;16.58;85.80;100486.59;4903184;29;20052;-80
2021/08/18 06:20:58;;;;;;;2.00;1.80;;;;;;;16.64;85.75;100491.56;4904021;29;20066;-79
2021/08/18 06:23:27;;;;;;;2.38;1.73;;;;;;;16.72;85.58;100491.84;4900892;29;20044;-79
2021/08/18 06:25:54;;;;;;;3.10;2.20;;;;;;;16.83;84.87;100497.31;4899839;29;20061;-79
2021/08/18 06:28:21;;;;;;;1.92;1.55;;;;;;;16.90;84.17;100487.88;4910409;29;20047;-79
2021/08/18 06:30:48;;;;;;;5.47;1.98;;;;;;;17.12;84.66;100490.72;4905939;29;20040;-80
2021/08/18 06:33:14;;;;;;;2.95;2.25;;;;;;;17.37;82.17;100500.47;4895236;29;20425;-79
2021/08/18 06:35:43;;;;;;;2.10;1.50;;;;;;;17.53;81.06;100476.97;4902190;29;20056;-78
2021/08/18 06:38:09;;;;;;;1.52;1.42;;;;;;;17.68;80.63;100479.50;4895172;29;20047;-79
2021/08/18 06:40:36;;;;;;;3.20;1.38;;;;;;;17.91;80.17;100486.66;4900517;29;20388;-79
2021/08/18 06:43:03;;;;;;;3.28;2.80;;;;;;;17.91;78.72;100489.34;4898246;29;20041;-78
2021/08/18 06:45:29;;;;;;;2.60;1.70;;;;;;;17.88;78.13;100492.25;4895968;29;20059;-79
2021/08/18 06:47:56;;;;;;;1.70;1.50;;;;;;;17.83;79.30;100497.09;4897446;29;20036;-79
2021/08/18 06:50:24;;;;;;;2.55;1.30;;;;;;;17.73;79.11;100493.41;4901160;29;20041;-79
2021/08/18 06:52:51;;;;;;;1.98;1.50;;;;;;;17.54;80.39;100493.88;4906297;29;20116;-78
2021/08/18 06:55:18;;;;;;;1.52;1.38;;;;;;;17.40;80.59;100507.44;4910447;29;20054;-81
2021/08/18 06:57:46;;;;;;;1.77;1.30;;;;;;;17.33;80.93;100503.47;4887410;29;20052;-79
2021/08/18 07:00:14;;;;;;;1.52;1.42;;;;;;;17.22;81.56;100504.28;4909300;29;20103;-78
2021/08/18 07:02:51;;;;;;;2.75;1.48;;;;;;;17.19;82.01;100510.69;4904326;29;20048;-78
2021/08/18 07:05:20;;;;;;;3.28;1.70;;;;;;;17.18;82.58;100506.31;4902867;29;20064;-79
2021/08/18 07:07:47;;;;;;;6.97;5.03;;;;;;;17.18;82.62;100506.31;4901392;29;20151;-79
2021/08/18 07:10:15;;;;;;;6.10;5.47;;;;;;;17.21;82.90;100504.38;4906875;29;20493;-79
2021/08/18 07:12:43;;;;;;;3.13;1.55;;;;;;;17.27;82.03;100509.31;4897843;29;20045;-79
2021/08/18 07:15:10;;;;;;;1.45;1.33;;;;;;;17.29;82.10;100505.56;4893388;29;20044;-79
2021/08/18 07:17:37;;;;;;;1.67;1.20;;;;;;;17.36;81.78;100508.63;4891905;29;20048;-79
2021/08/18 07:20:05;;;;;;;3.30;1.42;;;;;;;17.39;81.79;100503.03;4906547;29;20067;-79
2021/08/18 07:22:31;;;;;;;3.80;1.80;;;;;;;17.43;81.35;100508.06;4898999;29;20045;-79
2021/08/18 07:24:59;;;;;;;8.02;2.20;;;;;;;17.38;81.47;100502.19;4903256;29;20052;-79
2021/08/18 07:27:27;;;;;;;3.35;1.73;;;;;;;17.43;81.61;100509.88;4903829;29;20118;-80
2021/08/18 07:29:57;;;;;;;3.17;1.45;;;;;;;17.38;81.64;100509.34;4898021;29;20369;-79
2021/08/18 07:32:25;;;;;;;3.70;1.80;;;;;;;17.40;83.00;100518.13;4906690;29;20805;-79
2021/08/18 07:34:53;;;;;;;3.30;1.38;;;;;;;17.42;82.79;100513.53;4909545;29;20051;-79
2021/08/18 07:37:22;;;;;;;1.25;1.15;;;;;;;17.43;81.61;100513.41;4917688;29;20070;-79
2021/08/18 07:39:48;;;;;;;2.05;1.35;;;;;;;17.38;82.16;100499.50;4904291;29;20051;-79
2021/08/18 07:42:15;;;;;;;4.88;1.50;;;;;;;17.52;82.05;100514.56;4910946;29;20143;-79
2021/08/18 07:44:42;;;;;;;1.88;1.17;;;;;;;17.53;81.23;100514.44;4915851;29;20051;-79
2021/08/18 07:47:09;;;;;;;2.33;1.40;;;;;;;17.47;80.76;100508.69;4896879;29;20041;-79
2021/08/18 07:49:36;;;;;;;2.15;1.20;;;;;;;17.43;81.22;100505.38;4909855;29;20055;-80
2021/08/18 07:52:05;;;;;;;2.35;1.40;;;;;;;17.42;81.11;100516.22;4901696;29;20064;-80
2021/08/18 07:54:32;;;;;;;1.75;1.20;;;;;;;17.37;81.40;100511.19;4904950;29;20072;-79
2021/08/18 07:56:59;;;;;;;4.43;1.73;;;;;;;17.35;80.94;100510.44;4920674;29;20131;-80
2021/08/18 07:59:26;;;;;;;2.22;1.05;;;;;;;17.29;81.67;100510.03;4904138;29;20108;-80
2021/08/18 08:01:53;;;;;;;2.08;1.20;;;;;;;17.28;81.87;100519.03;4909726;29;20598;-80
2021/08/18 08:04:20;;;;;;;1.92;1.23;;;;;;;17.27;82.02;100517.31;4904587;29;20048;-80
2021/08/18 08:06:49;;;;;;;4.65;2.83;;;;;;;17.26;81.91;100518.28;4906454;29;20037;-80
2021/08/18 08:09:16;;;;;;;3.33;1.30;;;;;;;17.25;82.52;100521.94;4908243;29;20560;-80
2021/08/18 08:11:42;;;;;;;3.55;1.65;;;;;;;17.30;83.12;100523.31;4888834;29;20091;-80
2021/08/18 08:14:09;;;;;;;2.50;1.30;;;;;;;17.40;82.55;100519.00;4902450;29;20481;-81
2021/08/18 08:16:35;;;;;;;1.45;1.27;;;;;;;17.46;81.80;100523.91;4905804;29;20062;-80
2021/08/18 08:19:04;;;;;;;1.48;1.20;;;;;;;17.46;81.08;100518.56;4907268;29;20128;-80
2021/08/18 08:21:31;;;;;;;1.45;1.23;;;;;;;17.44;81.69;100519.63;4920522;29;20062;-80
2021/08/18 08:23:58;;;;;;;1.95;1.02;;;;;;;17.50;81.83;100524.50;4914134;29;20041;-80
2021/08/18 08:26:25;;;;;;;1.27;1.17;;;;;;;17.57;80.98;100520.44;4924940;29;20103;-80
2021/08/18 08:28:51;;;;;;;2.35;1.38;;;;;;;17.65;80.75;100526.09;4923703;29;20056;-80
2021/08/18 08:31:18;;;;;;;1.35;1.05;;;;;;;17.68;80.56;100523.19;4933449;29;20071;-79
2021/08/18 08:33:45;;;;;;;2.13;1.27;;;;;;;17.69;80.57;100526.72;4917814;29;20043;-80
2021/08/18 08:36:12;;;;;;;1.40;1.30;;;;;;;17.73;79.81;100521.03;4920096;29;20139;-80
2021/08/18 08:38:39;;;;;;;2.83;1.10;;;;;;;17.82;79.55;100517.66;4910049;29;20048;-79
2021/08/18 08:41:09;;;;;;;42.63;26.67;;;;;;;17.86;79.12;100526.31;4902295;29;20040;-80
2021/08/18 08:43:39;;;;;;;4.20;1.50;;;;;;;17.82;79.13;100533.72;4900261;29;20048;-79
2021/08/18 08:46:06;;;;;;;2.38;1.38;;;;;;;17.77;79.37;100527.88;4904232;29;20050;-79
2021/08/18 08:48:38;;;;;;;1.42;1.33;;;;;;;17.76;80.10;100531.53;4907563;29;20047;-80
2021/08/18 08:51:05;;;;;;;1.63;1.02;;;;;;;17.79;80.22;100528.59;4914675;29;20051;-79
2021/08/18 08:53:33;;;;;;;1.60;1.02;;;;;;;17.80;79.59;100534.81;4911322;29;20060;-77
2021/08/18 08:56:01;;;;;;;3.65;1.10;;;;;;;17.84;79.34;100525.56;4908273;29;20067;-79
2021/08/18 08:58:48;;;;;;;2.13;1.10;;;;;;;17.91;79.49;100520.63;4890630;29;20055;-80
2021/08/18 09:01:16;;;;;;;3.50;0.93;;;;;;;18.04;79.08;100534.81;4913152;29;20139;-78
2021/08/18 09:03:45;;;;;;;1.75;1.40;;;;;;;18.18;78.75;100532.78;4911199;29;20045;-79
2021/08/18 09:06:21;;;;;;;2.08;1.40;;;;;;;18.35;77.66;100536.00;4908800;29;20111;-80
2021/08/18 09:08:52;;;;;;;2.85;1.30;;;;;;;18.46;77.41;100526.13;4903697;29;20135;-80
2021/08/18 09:11:20;;;;;;;1.60;1.10;;;;;;;18.48;76.99;100529.56;4911790;29;20116;-80
2021/08/18 09:13:49;;;;;;;2.22;1.35;;;;;;;18.48;76.98;100526.88;4918747;29;20072;-79
2021/08/18 09:16:18;;;;;;;1.08;0.98;;;;;;;18.47;77.00;100533.22;4898080;29;20075;-80
2021/08/18 09:18:54;;;;;;;2.85;1.25;;;;;;;18.54;77.43;100533.59;4895852;29;20733;-79
2021/08/18 09:21:35;;;;;;;3.25;1.70;;;;;;;18.58;77.85;100535.06;4897208;29;20123;-80
2021/08/18 09:24:11;;;;;;;1.67;1.17;;;;;;;18.52;78.56;100535.53;4919157;29;20040;-80
2021/08/18 09:27:00;;;;;;;1.80;1.00;;;;;;;18.46;80.40;100531.50;4911255;29;20043;-80
2021/08/18 09:29:50;;;;;;;2.22;1.00;;;;;;;18.53;80.56;100530.06;4907360;29;20042;-79
2021/08/18 09:32:20;;;;;;;2.33;1.23;;;;;;;18.77;80.18;100532.69;4918360;29;20112;-80
2021/08/18 09:35:08;;;;;;;1.25;1.05;;;;;;;19.03;78.76;100527.09;4918402;29;20063;-79
2021/08/18 09:38:02;;;;;;;3.83;1.15;;;;;;;19.12;77.12;100529.03;4880993;29;20053;-80
2021/08/18 09:40:33;;;;;;;2.85;1.48;;;;;;;19.19;77.26;100525.72;4880475;29;20074;-80
2021/08/18 09:43:06;;;;;;;;;;;;;;;19.39;77.02;100516.03;4877764;29;20412;-80
2021/08/18 09:45:34;;;;;;;4.55;1.48;;;;;;;19.68;76.63;100520.88;4877734;29;20538;-81
2021/08/18 09:48:04;;;;;;;2.53;1.40;;;;;;;19.75;74.59;100519.41;4857813;29;20052;-81
2021/08/18 09:50:53;;;;;;;2.25;1.40;;;;;;;19.92;74.64;100511.63;4874446;29;20043;-80
2021/08/18 09:53:24;;;;;;;1.80;1.42;;;;;;;20.01;74.20;100507.31;4864112;29;20505;-80
2021/08/18 09:56:05;;;;;;;3.30;1.80;;;;;;;20.11;72.49;100513.63;4875612;29;20046;-80
2021/08/18 09:58:39;;;;;;;5.40;1.83;;;;;;;20.15;73.00;100509.66;4879905;29;20091;-80
2021/08/18 10:01:11;;;;;;;2.15;1.65;;;;;;;20.25;72.49;100520.50;4881268;29;20045;-80
2021/08/18 10:03:39;;;;;;;1.98;1.30;;;;;;;20.22;71.95;100501.94;4881242;29;20088;-80
2021/08/18 10:06:08;;;;;;;3.53;1.75;;;;;;;20.25;72.12;100509.75;4879162;29;20061;-80
2021/08/18 10:08:36;;;;;;;2.55;1.80;;;;;;;20.32;71.48;100506.41;4878133;29;20045;-80
2021/08/18 10:11:05;;;;;;;2.50;1.25;;;;;;;20.34;72.11;100508.97;4871134;29;20053;-80
2021/08/18 10:13:33;;;;;;;2.95;1.48;;;;;;;20.34;71.03;100514.34;4872192;29;20057;-80
2021/08/18 10:16:00;;;;;;;1.40;1.30;;;;;;;20.22;71.32;100501.94;4870571;29;20061;-80
2021/08/18 10:18:39;;;;;;;2.80;2.00;;;;;;;20.06;72.27;100515.00;4870015;29;20060;-80
2021/08/18 10:21:10;;;;;;;2.03;1.35;;;;;;;19.86;73.61;100509.44;4876214;29;20068;-81
2021/08/18 10:23:59;;;;;;;3.75;2.30;;;;;;;19.72;76.31;100522.34;4854281;29;20159;-80
2021/08/18 10:26:35;;;;;;;5.13;2.67;;;;;;;19.56;78.58;100512.84;4872856;29;20041;-81
2021/08/18 10:29:13;;;;;;;3.75;2.75;;;;;;;19.57;78.89;100519.09;4869161;29;20543;-81
2021/08/18 10:31:43;;;;;;;3.50;1.80;;;;;;;19.68;77.85;100512.81;4874942;29;20401;-80
2021/08/18 10:34:22;;;;;;;;;;;;;;;19.87;77.34;100511.16;4873380;29;20807;-80
2021/08/18 10:36:53;;;;;;;2.42;1.60;;;;;;;20.04;76.38;100517.81;4886933;29;19919;-79
2021/08/18 10:39:25;;;;;;;2.25;1.90;;;;;;;20.19;75.94;100518.34;4890657;29;20059;-80
2021/08/18 10:41:59;;;;;;;3.15;1.40;;;;;;;20.19;74.64;100505.75;4889394;29;20049;-80
2021/08/18 10:44:48;;;;;;;3.08;1.27;;;;;;;20.11;74.17;100512.78;4854230;29;20592;-80
2021/08/18 10:47:46;;;;;;;1.90;1.48;;;;;;;19.98;75.06;100512.09;4883068;29;20124;-80
2021/08/18 10:50:13;;;;;;;2.80;1.20;;;;;;;19.77;75.08;100515.59;4867263;29;20065;-80
2021/08/18 10:52:42;;;;;;;2.67;1.20;;;;;;;19.63;75.62;100518.59;4896536;29;20049;-79
2021/08/18 10:55:10;;;;;;;0.90;0.90;;;;;;;19.47;75.58;100518.09;4896687;29;20041;-79
2021/08/18 10:57:50;;;;;;;0.80;0.80;;;;;;;19.35;76.31;100521.81;4894784;29;20049;-79
2021/08/18 11:00:32;;;;;;;1.05;0.95;;;;;;;19.38;75.95;100518.84;4898710;29;20085;-79
2021/08/18 11:03:22;;;;;;;2.05;1.23;;;;;;;19.64;75.64;100514.94;4902987;29;20061;-79
2021/08/18 11:05:53;;;;;;;1.10;0.90;;;;;;;19.85;74.64;100507.75;4874301;29;20033;-79
2021/08/18 11:08:40;;;;;;;1.38;1.23;;;;;;;20.09;74.21;100512.03;4894971;29;102296;-79
2021/08/18 11:11:07;;;;;;;0.90;0.90;;;;;;;20.34;72.69;100500.88;4883356;29;127904;-79
2021/08/18 11:13:38;;;;;;;2.33;1.08;;;;;;;20.65;72.87;100504.50;4888113;29;20056;-80
2021/08/18 11:16:18;;;;;;;1.33;1.08;;;;;;;20.91;69.16;100500.41;4879291;29;113269;-79
2021/08/18 11:18:47;;;;;;;1.77;1.20;;;;;;;21.11;68.13;100497.75;4897469;29;25318;-80
2021/08/18 11:21:21;;;;;;;3.28;1.33;;;;;;;21.21;67.22;100493.28;4875342;29;87744;-79
2021/08/18 11:23:54;;;;;;;1.58;1.13;;;;;;;21.34;67.47;100496.59;4883665;29;20041;-79
2021/08/18 11:26:24;;;;;;;1.80;1.33;;;;;;;21.46;64.14;100489.22;4894387;29;20362;-80
2021/08/18 11:28:56;;;;;;;1.40;1.30;;;;;;;21.52;63.20;100494.06;4872265;29;20511;-79